sensor_id;sensor_type;location;lat;lon;timestamp;P1;durP1;ratioP1;P2;durP2;ratioP2
18136;SDS011;9194;42.632;23.298;2022-12-18T00:02:48;4.17;;;2.97;;
18136;SDS011;9194;42.632;23.298;2022-12-18T00:07:49;5.37;;;3.50;;
18136;SDS011;9194;42.632;23.298;2022-12-18T00:12:51;6.40;;;4.93;;
18136;SDS011;9194;42.632;23.298;2022-12-18T00:17:52;6.30;;;5.10;;
18136;SDS011;9194;42.632;23.298;2022-12-18T00:22:53;8.23;;;5.10;;
18136;SDS011;9194;42.632;23.298;2022-12-18T00:27:55;6.67;;;5.17;;
18136;SDS011;9194;42.632;23.298;2022-12-18T00:32:57;9.37;;;4.80;;
18136;SDS011;9194;42.632;23.298;2022-12-18T00:38:00;4.13;;;3.40;;
18136;SDS011;9194;42.632;23.298;2022-12-18T00:43:01;6.77;;;4.53;;
18136;SDS011;9194;42.632;23.298;2022-12-18T00:48:03;8.13;;;4.93;;
18136;SDS011;9194;42.632;23.298;2022-12-18T00:53:04;5.47;;;3.90;;
18136;SDS011;9194;42.632;23.298;2022-12-18T00:58:06;5.53;;;3.30;;
18136;SDS011;9194;42.632;23.298;2022-12-18T01:03:12;7.30;;;3.77;;
18136;SDS011;9194;42.632;23.298;2022-12-18T01:08:14;4.47;;;3.20;;
18136;SDS011;9194;42.632;23.298;2022-12-18T01:13:18;9.93;;;5.10;;
18136;SDS011;9194;42.632;23.298;2022-12-18T01:18:19;8.93;;;5.83;;
18136;SDS011;9194;42.632;23.298;2022-12-18T01:23:20;11.37;;;5.73;;
18136;SDS011;9194;42.632;23.298;2022-12-18T01:28:22;13.23;;;7.07;;
18136;SDS011;9194;42.632;23.298;2022-12-18T01:33:23;15.27;;;7.43;;
18136;SDS011;9194;42.632;23.298;2022-12-18T01:38:24;14.47;;;7.87;;
18136;SDS011;9194;42.632;23.298;2022-12-18T01:43:42;11.23;;;7.27;;
18136;SDS011;9194;42.632;23.298;2022-12-18T01:48:45;13.33;;;7.97;;
18136;SDS011;9194;42.632;23.298;2022-12-18T01:53:49;13.03;;;8.07;;
18136;SDS011;9194;42.632;23.298;2022-12-18T01:59:04;12.70;;;7.80;;
18136;SDS011;9194;42.632;23.298;2022-12-18T02:04:25;14.43;;;8.30;;
18136;SDS011;9194;42.632;23.298;2022-12-18T02:09:29;13.60;;;8.27;;
18136;SDS011;9194;42.632;23.298;2022-12-18T02:20:21;17.53;;;9.80;;
18136;SDS011;9194;42.632;23.298;2022-12-18T02:25:33;16.17;;;8.53;;
18136;SDS011;9194;42.632;23.298;2022-12-18T02:31:02;11.50;;;7.00;;
18136;SDS011;9194;42.632;23.298;2022-12-18T02:36:07;13.17;;;7.60;;
18136;SDS011;9194;42.632;23.298;2022-12-18T02:41:13;8.70;;;6.30;;
18136;SDS011;9194;42.632;23.298;2022-12-18T02:51:50;9.50;;;5.80;;
18136;SDS011;9194;42.632;23.298;2022-12-18T02:56:57;8.37;;;6.17;;
18136;SDS011;9194;42.632;23.298;2022-12-18T03:02:22;10.77;;;6.47;;
18136;SDS011;9194;42.632;23.298;2022-12-18T03:07:35;11.07;;;6.83;;
18136;SDS011;9194;42.632;23.298;2022-12-18T03:12:45;11.63;;;6.80;;
18136;SDS011;9194;42.632;23.298;2022-12-18T03:17:55;14.07;;;6.73;;
18136;SDS011;9194;42.632;23.298;2022-12-18T03:23:12;9.67;;;5.93;;
18136;SDS011;9194;42.632;23.298;2022-12-18T03:28:22;6.30;;;4.83;;
18136;SDS011;9194;42.632;23.298;2022-12-18T03:33:40;5.90;;;4.37;;
18136;SDS011;9194;42.632;23.298;2022-12-18T03:38:49;5.80;;;3.57;;
18136;SDS011;9194;42.632;23.298;2022-12-18T03:43:53;6.50;;;3.50;;
18136;SDS011;9194;42.632;23.298;2022-12-18T03:49:10;5.13;;;3.53;;
18136;SDS011;9194;42.632;23.298;2022-12-18T03:54:16;7.47;;;3.47;;
18136;SDS011;9194;42.632;23.298;2022-12-18T03:59:27;3.77;;;2.93;;
18136;SDS011;9194;42.632;23.298;2022-12-18T04:04:32;5.00;;;3.13;;
18136;SDS011;9194;42.632;23.298;2022-12-18T04:09:38;3.90;;;3.50;;
18136;SDS011;9194;42.632;23.298;2022-12-18T04:14:42;4.97;;;3.80;;
18136;SDS011;9194;42.632;23.298;2022-12-18T04:19:44;5.70;;;3.53;;
18136;SDS011;9194;42.632;23.298;2022-12-18T04:24:46;6.90;;;3.90;;
18136;SDS011;9194;42.632;23.298;2022-12-18T04:29:59;7.43;;;4.27;;
18136;SDS011;9194;42.632;23.298;2022-12-18T04:35:01;5.53;;;3.70;;
18136;SDS011;9194;42.632;23.298;2022-12-18T04:40:05;6.43;;;4.33;;
18136;SDS011;9194;42.632;23.298;2022-12-18T04:45:14;7.07;;;4.10;;
18136;SDS011;9194;42.632;23.298;2022-12-18T04:50:16;9.07;;;4.57;;
18136;SDS011;9194;42.632;23.298;2022-12-18T04:55:20;7.60;;;4.60;;
18136;SDS011;9194;42.632;23.298;2022-12-18T05:00:21;7.10;;;4.53;;
18136;SDS011;9194;42.632;23.298;2022-12-18T05:05:23;7.97;;;4.20;;
18136;SDS011;9194;42.632;23.298;2022-12-18T05:10:24;6.87;;;4.57;;
18136;SDS011;9194;42.632;23.298;2022-12-18T05:15:27;7.43;;;4.93;;
18136;SDS011;9194;42.632;23.298;2022-12-18T05:20:32;9.33;;;4.63;;
18136;SDS011;9194;42.632;23.298;2022-12-18T05:25:33;8.37;;;4.97;;
18136;SDS011;9194;42.632;23.298;2022-12-18T05:30:37;6.23;;;4.70;;
18136;SDS011;9194;42.632;23.298;2022-12-18T05:35:39;8.33;;;4.93;;
18136;SDS011;9194;42.632;23.298;2022-12-18T05:40:41;8.27;;;4.67;;
18136;SDS011;9194;42.632;23.298;2022-12-18T05:45:44;6.50;;;4.73;;
18136;SDS011;9194;42.632;23.298;2022-12-18T05:50:47;6.43;;;4.20;;
18136;SDS011;9194;42.632;23.298;2022-12-18T05:55:49;8.17;;;5.03;;
18136;SDS011;9194;42.632;23.298;2022-12-18T06:00:51;9.23;;;5.37;;
18136;SDS011;9194;42.632;23.298;2022-12-18T06:05:52;7.57;;;5.57;;
18136;SDS011;9194;42.632;23.298;2022-12-18T06:10:53;9.50;;;5.23;;
18136;SDS011;9194;42.632;23.298;2022-12-18T06:15:55;10.27;;;6.10;;
18136;SDS011;9194;42.632;23.298;2022-12-18T06:20:56;10.50;;;6.00;;
18136;SDS011;9194;42.632;23.298;2022-12-18T06:25:58;9.43;;;5.93;;
18136;SDS011;9194;42.632;23.298;2022-12-18T06:30:59;8.27;;;5.23;;
18136;SDS011;9194;42.632;23.298;2022-12-18T06:36:02;8.97;;;5.30;;
18136;SDS011;9194;42.632;23.298;2022-12-18T06:41:16;10.60;;;5.43;;
18136;SDS011;9194;42.632;23.298;2022-12-18T06:46:19;9.70;;;5.43;;
18136;SDS011;9194;42.632;23.298;2022-12-18T06:51:21;12.77;;;4.87;;
18136;SDS011;9194;42.632;23.298;2022-12-18T06:56:23;8.20;;;5.30;;
18136;SDS011;9194;42.632;23.298;2022-12-18T07:01:25;9.20;;;5.93;;
18136;SDS011;9194;42.632;23.298;2022-12-18T07:06:26;8.27;;;4.93;;
18136;SDS011;9194;42.632;23.298;2022-12-18T07:11:27;8.47;;;4.87;;
18136;SDS011;9194;42.632;23.298;2022-12-18T07:16:29;10.10;;;5.57;;
18136;SDS011;9194;42.632;23.298;2022-12-18T07:21:30;7.73;;;5.17;;
18136;SDS011;9194;42.632;23.298;2022-12-18T07:26:31;9.07;;;5.57;;
18136;SDS011;9194;42.632;23.298;2022-12-18T07:31:32;12.50;;;6.03;;
18136;SDS011;9194;42.632;23.298;2022-12-18T07:36:34;11.33;;;5.70;;
18136;SDS011;9194;42.632;23.298;2022-12-18T07:41:35;10.00;;;5.97;;
18136;SDS011;9194;42.632;23.298;2022-12-18T07:46:43;9.53;;;5.83;;
18136;SDS011;9194;42.632;23.298;2022-12-18T07:51:44;11.77;;;6.00;;
18136;SDS011;9194;42.632;23.298;2022-12-18T07:56:50;10.40;;;5.77;;
18136;SDS011;9194;42.632;23.298;2022-12-18T08:01:53;10.50;;;5.60;;
18136;SDS011;9194;42.632;23.298;2022-12-18T08:06:54;11.03;;;5.47;;
18136;SDS011;9194;42.632;23.298;2022-12-18T08:11:55;9.57;;;5.83;;
18136;SDS011;9194;42.632;23.298;2022-12-18T08:16:57;14.80;;;6.63;;
18136;SDS011;9194;42.632;23.298;2022-12-18T08:21:58;14.37;;;7.67;;
18136;SDS011;9194;42.632;23.298;2022-12-18T08:27:00;13.23;;;7.53;;
18136;SDS011;9194;42.632;23.298;2022-12-18T08:32:01;11.40;;;6.10;;
18136;SDS011;9194;42.632;23.298;2022-12-18T08:37:02;13.50;;;6.13;;
18136;SDS011;9194;42.632;23.298;2022-12-18T08:42:03;12.33;;;7.20;;
18136;SDS011;9194;42.632;23.298;2022-12-18T08:47:23;16.90;;;8.03;;
18136;SDS011;9194;42.632;23.298;2022-12-18T08:52:26;17.77;;;7.40;;
18136;SDS011;9194;42.632;23.298;2022-12-18T08:57:29;21.57;;;10.33;;
18136;SDS011;9194;42.632;23.298;2022-12-18T09:02:30;25.13;;;11.20;;
18136;SDS011;9194;42.632;23.298;2022-12-18T09:07:31;30.03;;;12.57;;
18136;SDS011;9194;42.632;23.298;2022-12-18T09:12:33;29.20;;;13.43;;
18136;SDS011;9194;42.632;23.298;2022-12-18T09:17:34;26.97;;;13.47;;
18136;SDS011;9194;42.632;23.298;2022-12-18T09:22:35;33.40;;;16.20;;
18136;SDS011;9194;42.632;23.298;2022-12-18T09:27:36;34.07;;;15.97;;
18136;SDS011;9194;42.632;23.298;2022-12-18T09:32:38;33.27;;;16.30;;
18136;SDS011;9194;42.632;23.298;2022-12-18T09:37:39;35.93;;;15.60;;
18136;SDS011;9194;42.632;23.298;2022-12-18T09:42:43;36.03;;;14.70;;
18136;SDS011;9194;42.632;23.298;2022-12-18T09:47:50;31.53;;;15.47;;
18136;SDS011;9194;42.632;23.298;2022-12-18T09:52:54;30.17;;;14.77;;
18136;SDS011;9194;42.632;23.298;2022-12-18T09:58:00;31.57;;;14.40;;
18136;SDS011;9194;42.632;23.298;2022-12-18T10:03:09;28.63;;;13.17;;
18136;SDS011;9194;42.632;23.298;2022-12-18T10:08:23;28.70;;;13.23;;
18136;SDS011;9194;42.632;23.298;2022-12-18T10:13:49;28.50;;;11.93;;
18136;SDS011;9194;42.632;23.298;2022-12-18T10:29:44;36.80;;;14.33;;
18136;SDS011;9194;42.632;23.298;2022-12-18T10:34:47;29.57;;;13.60;;
18136;SDS011;9194;42.632;23.298;2022-12-18T10:45:19;31.90;;;13.93;;
18136;SDS011;9194;42.632;23.298;2022-12-18T10:50:26;26.03;;;13.07;;
18136;SDS011;9194;42.632;23.298;2022-12-18T10:55:34;27.03;;;12.53;;
18136;SDS011;9194;42.632;23.298;2022-12-18T11:00:40;23.33;;;12.27;;
18136;SDS011;9194;42.632;23.298;2022-12-18T11:05:42;24.00;;;12.23;;
18136;SDS011;9194;42.632;23.298;2022-12-18T11:10:44;24.53;;;10.77;;
18136;SDS011;9194;42.632;23.298;2022-12-18T11:15:48;20.23;;;9.20;;
18136;SDS011;9194;42.632;23.298;2022-12-18T11:20:51;16.70;;;9.20;;
18136;SDS011;9194;42.632;23.298;2022-12-18T11:25:58;14.23;;;7.53;;
18136;SDS011;9194;42.632;23.298;2022-12-18T11:31:15;17.70;;;7.90;;
18136;SDS011;9194;42.632;23.298;2022-12-18T11:36:19;17.07;;;7.87;;
18136;SDS011;9194;42.632;23.298;2022-12-18T11:47:21;15.43;;;7.60;;
18136;SDS011;9194;42.632;23.298;2022-12-18T11:52:24;14.97;;;7.80;;
18136;SDS011;9194;42.632;23.298;2022-12-18T11:57:44;15.33;;;7.13;;
18136;SDS011;9194;42.632;23.298;2022-12-18T12:13:34;17.87;;;8.53;;
18136;SDS011;9194;42.632;23.298;2022-12-18T12:24:02;17.07;;;8.57;;
18136;SDS011;9194;42.632;23.298;2022-12-18T12:29:34;15.57;;;8.30;;
18136;SDS011;9194;42.632;23.298;2022-12-18T12:40:18;23.63;;;9.67;;
18136;SDS011;9194;42.632;23.298;2022-12-18T12:45:28;21.67;;;9.47;;
18136;SDS011;9194;42.632;23.298;2022-12-18T12:50:37;23.23;;;10.23;;
18136;SDS011;9194;42.632;23.298;2022-12-18T12:55:41;21.47;;;10.17;;
18136;SDS011;9194;42.632;23.298;2022-12-18T13:00:49;19.70;;;9.47;;
18136;SDS011;9194;42.632;23.298;2022-12-18T13:06:00;22.47;;;10.17;;
18136;SDS011;9194;42.632;23.298;2022-12-18T13:11:14;22.53;;;10.23;;
18136;SDS011;9194;42.632;23.298;2022-12-18T13:22:28;21.33;;;9.87;;
18136;SDS011;9194;42.632;23.298;2022-12-18T13:32:46;22.43;;;11.70;;
18136;SDS011;9194;42.632;23.298;2022-12-18T13:37:51;21.53;;;10.43;;
18136;SDS011;9194;42.632;23.298;2022-12-18T13:42:53;27.07;;;11.87;;
18136;SDS011;9194;42.632;23.298;2022-12-18T13:48:14;22.50;;;10.90;;
18136;SDS011;9194;42.632;23.298;2022-12-18T13:53:20;29.23;;;12.47;;
18136;SDS011;9194;42.632;23.298;2022-12-18T13:58:25;25.20;;;12.50;;
18136;SDS011;9194;42.632;23.298;2022-12-18T14:03:27;25.97;;;12.03;;
18136;SDS011;9194;42.632;23.298;2022-12-18T14:08:32;28.53;;;12.67;;
18136;SDS011;9194;42.632;23.298;2022-12-18T14:13:37;26.40;;;12.27;;
18136;SDS011;9194;42.632;23.298;2022-12-18T14:18:55;25.73;;;12.30;;
18136;SDS011;9194;42.632;23.298;2022-12-18T14:24:06;25.60;;;12.57;;
18136;SDS011;9194;42.632;23.298;2022-12-18T14:29:26;28.03;;;12.43;;
18136;SDS011;9194;42.632;23.298;2022-12-18T14:34:28;28.17;;;12.67;;
18136;SDS011;9194;42.632;23.298;2022-12-18T14:39:30;28.23;;;13.77;;
18136;SDS011;9194;42.632;23.298;2022-12-18T14:44:31;20.80;;;11.40;;
18136;SDS011;9194;42.632;23.298;2022-12-18T14:49:33;25.27;;;11.50;;
18136;SDS011;9194;42.632;23.298;2022-12-18T14:54:35;29.80;;;13.00;;
18136;SDS011;9194;42.632;23.298;2022-12-18T14:59:38;27.03;;;12.37;;
18136;SDS011;9194;42.632;23.298;2022-12-18T15:04:40;25.30;;;12.83;;
18136;SDS011;9194;42.632;23.298;2022-12-18T15:16:01;31.57;;;13.87;;
18136;SDS011;9194;42.632;23.298;2022-12-18T15:25:42;27.67;;;13.30;;
18136;SDS011;9194;42.632;23.298;2022-12-18T15:36:04;25.37;;;11.80;;
18136;SDS011;9194;42.632;23.298;2022-12-18T15:41:11;25.33;;;11.73;;
18136;SDS011;9194;42.632;23.298;2022-12-18T15:46:16;25.90;;;12.37;;
18136;SDS011;9194;42.632;23.298;2022-12-18T15:56:23;24.70;;;12.23;;
18136;SDS011;9194;42.632;23.298;2022-12-18T16:01:44;26.73;;;11.80;;
18136;SDS011;9194;42.632;23.298;2022-12-18T16:06:48;25.67;;;11.97;;
18136;SDS011;9194;42.632;23.298;2022-12-18T16:11:50;26.47;;;11.73;;
18136;SDS011;9194;42.632;23.298;2022-12-18T16:16:53;27.37;;;12.23;;
18136;SDS011;9194;42.632;23.298;2022-12-18T16:21:58;29.20;;;13.13;;
18136;SDS011;9194;42.632;23.298;2022-12-18T16:27:00;29.07;;;12.57;;
18136;SDS011;9194;42.632;23.298;2022-12-18T16:32:01;18.73;;;8.77;;
18136;SDS011;9194;42.632;23.298;2022-12-18T16:37:04;19.70;;;9.33;;
18136;SDS011;9194;42.632;23.298;2022-12-18T16:42:10;20.77;;;9.10;;
18136;SDS011;9194;42.632;23.298;2022-12-18T16:47:15;20.70;;;9.63;;
18136;SDS011;9194;42.632;23.298;2022-12-18T16:52:17;23.33;;;10.47;;
18136;SDS011;9194;42.632;23.298;2022-12-18T16:57:20;20.40;;;8.33;;
18136;SDS011;9194;42.632;23.298;2022-12-18T17:02:23;17.23;;;8.57;;
18136;SDS011;9194;42.632;23.298;2022-12-18T17:07:26;20.47;;;7.80;;
18136;SDS011;9194;42.632;23.298;2022-12-18T17:12:28;16.67;;;7.47;;
18136;SDS011;9194;42.632;23.298;2022-12-18T17:17:29;13.03;;;6.77;;
18136;SDS011;9194;42.632;23.298;2022-12-18T17:22:30;16.93;;;6.43;;
18136;SDS011;9194;42.632;23.298;2022-12-18T17:27:32;13.07;;;6.80;;
18136;SDS011;9194;42.632;23.298;2022-12-18T17:32:33;15.27;;;7.10;;
18136;SDS011;9194;42.632;23.298;2022-12-18T17:37:34;14.83;;;7.43;;
18136;SDS011;9194;42.632;23.298;2022-12-18T17:42:36;15.37;;;7.63;;
18136;SDS011;9194;42.632;23.298;2022-12-18T17:47:37;20.10;;;8.70;;
18136;SDS011;9194;42.632;23.298;2022-12-18T17:52:38;20.33;;;8.40;;
18136;SDS011;9194;42.632;23.298;2022-12-18T17:57:41;22.10;;;8.00;;
18136;SDS011;9194;42.632;23.298;2022-12-18T18:02:42;19.13;;;8.60;;
18136;SDS011;9194;42.632;23.298;2022-12-18T18:07:44;18.07;;;8.47;;
18136;SDS011;9194;42.632;23.298;2022-12-18T18:12:45;13.73;;;6.90;;
18136;SDS011;9194;42.632;23.298;2022-12-18T18:18:05;13.97;;;6.47;;
18136;SDS011;9194;42.632;23.298;2022-12-18T18:23:06;15.33;;;7.33;;
18136;SDS011;9194;42.632;23.298;2022-12-18T18:28:08;13.27;;;6.53;;
18136;SDS011;9194;42.632;23.298;2022-12-18T18:33:09;13.57;;;7.23;;
18136;SDS011;9194;42.632;23.298;2022-12-18T18:38:10;22.20;;;8.13;;
18136;SDS011;9194;42.632;23.298;2022-12-18T18:43:12;21.17;;;9.73;;
18136;SDS011;9194;42.632;23.298;2022-12-18T18:48:13;19.97;;;8.67;;
18136;SDS011;9194;42.632;23.298;2022-12-18T18:53:14;22.13;;;9.83;;
18136;SDS011;9194;42.632;23.298;2022-12-18T18:58:15;25.30;;;10.43;;
18136;SDS011;9194;42.632;23.298;2022-12-18T19:03:17;23.70;;;10.37;;
18136;SDS011;9194;42.632;23.298;2022-12-18T19:08:21;26.43;;;10.93;;
18136;SDS011;9194;42.632;23.298;2022-12-18T19:13:23;31.67;;;12.37;;
18136;SDS011;9194;42.632;23.298;2022-12-18T19:18:26;24.97;;;11.47;;
18136;SDS011;9194;42.632;23.298;2022-12-18T19:23:28;22.17;;;9.67;;
18136;SDS011;9194;42.632;23.298;2022-12-18T19:28:30;22.60;;;9.73;;
18136;SDS011;9194;42.632;23.298;2022-12-18T19:33:33;18.93;;;9.17;;
18136;SDS011;9194;42.632;23.298;2022-12-18T19:38:36;21.43;;;7.63;;
18136;SDS011;9194;42.632;23.298;2022-12-18T19:43:39;20.60;;;9.33;;
18136;SDS011;9194;42.632;23.298;2022-12-18T19:48:40;20.77;;;10.13;;
18136;SDS011;9194;42.632;23.298;2022-12-18T19:53:42;27.73;;;10.23;;
18136;SDS011;9194;42.632;23.298;2022-12-18T19:58:45;22.70;;;10.03;;
18136;SDS011;9194;42.632;23.298;2022-12-18T20:03:46;22.20;;;10.03;;
18136;SDS011;9194;42.632;23.298;2022-12-18T20:08:48;27.07;;;10.77;;
18136;SDS011;9194;42.632;23.298;2022-12-18T20:13:50;20.77;;;9.47;;
18136;SDS011;9194;42.632;23.298;2022-12-18T20:18:52;23.13;;;9.57;;
18136;SDS011;9194;42.632;23.298;2022-12-18T20:23:54;21.53;;;9.73;;
18136;SDS011;9194;42.632;23.298;2022-12-18T20:28:56;23.50;;;9.53;;
18136;SDS011;9194;42.632;23.298;2022-12-18T20:33:57;21.87;;;8.77;;
18136;SDS011;9194;42.632;23.298;2022-12-18T20:38:59;23.03;;;9.70;;
18136;SDS011;9194;42.632;23.298;2022-12-18T20:44:00;18.30;;;9.33;;
18136;SDS011;9194;42.632;23.298;2022-12-18T20:49:02;25.30;;;9.83;;
18136;SDS011;9194;42.632;23.298;2022-12-18T20:54:03;24.67;;;9.80;;
18136;SDS011;9194;42.632;23.298;2022-12-18T20:59:05;23.83;;;9.50;;
18136;SDS011;9194;42.632;23.298;2022-12-18T21:04:07;19.87;;;8.57;;
18136;SDS011;9194;42.632;23.298;2022-12-18T21:09:09;22.17;;;9.07;;
18136;SDS011;9194;42.632;23.298;2022-12-18T21:14:14;22.00;;;9.80;;
18136;SDS011;9194;42.632;23.298;2022-12-18T21:19:19;21.00;;;8.80;;
18136;SDS011;9194;42.632;23.298;2022-12-18T21:24:25;20.80;;;8.93;;
18136;SDS011;9194;42.632;23.298;2022-12-18T21:29:27;21.70;;;9.37;;
18136;SDS011;9194;42.632;23.298;2022-12-18T21:34:28;22.50;;;10.03;;
18136;SDS011;9194;42.632;23.298;2022-12-18T21:39:31;23.50;;;10.00;;
18136;SDS011;9194;42.632;23.298;2022-12-18T21:44:33;23.20;;;10.10;;
18136;SDS011;9194;42.632;23.298;2022-12-18T21:49:34;25.90;;;10.53;;
18136;SDS011;9194;42.632;23.298;2022-12-18T21:54:35;23.17;;;10.80;;
18136;SDS011;9194;42.632;23.298;2022-12-18T21:59:38;26.53;;;10.57;;
18136;SDS011;9194;42.632;23.298;2022-12-18T22:04:40;23.40;;;11.33;;
18136;SDS011;9194;42.632;23.298;2022-12-18T22:09:43;37.27;;;11.17;;
18136;SDS011;9194;42.632;23.298;2022-12-18T22:14:47;31.90;;;12.77;;
18136;SDS011;9194;42.632;23.298;2022-12-18T22:19:48;28.33;;;10.97;;
18136;SDS011;9194;42.632;23.298;2022-12-18T22:24:49;26.83;;;11.87;;
18136;SDS011;9194;42.632;23.298;2022-12-18T22:29:53;27.83;;;11.40;;
18136;SDS011;9194;42.632;23.298;2022-12-18T22:35:06;33.57;;;12.07;;
18136;SDS011;9194;42.632;23.298;2022-12-18T22:40:09;25.07;;;10.17;;
18136;SDS011;9194;42.632;23.298;2022-12-18T22:45:18;25.93;;;10.90;;
18136;SDS011;9194;42.632;23.298;2022-12-18T22:50:20;25.30;;;11.40;;
18136;SDS011;9194;42.632;23.298;2022-12-18T22:55:22;24.23;;;10.60;;
18136;SDS011;9194;42.632;23.298;2022-12-18T23:00:23;32.10;;;12.40;;
18136;SDS011;9194;42.632;23.298;2022-12-18T23:05:24;27.93;;;11.53;;
18136;SDS011;9194;42.632;23.298;2022-12-18T23:10:26;29.00;;;11.53;;
18136;SDS011;9194;42.632;23.298;2022-12-18T23:15:27;27.30;;;10.90;;
18136;SDS011;9194;42.632;23.298;2022-12-18T23:20:29;26.57;;;11.20;;
18136;SDS011;9194;42.632;23.298;2022-12-18T23:25:30;28.30;;;12.37;;
18136;SDS011;9194;42.632;23.298;2022-12-18T23:30:32;27.20;;;11.97;;
18136;SDS011;9194;42.632;23.298;2022-12-18T23:35:33;28.67;;;12.20;;
18136;SDS011;9194;42.632;23.298;2022-12-18T23:40:35;30.53;;;11.80;;
18136;SDS011;9194;42.632;23.298;2022-12-18T23:45:36;30.20;;;12.10;;
18136;SDS011;9194;42.632;23.298;2022-12-18T23:50:38;24.50;;;11.40;;
18136;SDS011;9194;42.632;23.298;2022-12-18T23:55:42;25.77;;;11.67;;
